sensor_id;sensor_type;location;lat;lon;timestamp;pressure;altitude;pressure_sealevel;temperature;humidity
75298;BME280;63896;45.990;18.688;2022-12-18T00:01:48;102256.84;;;-2.69;91.57
75298;BME280;63896;45.990;18.688;2022-12-18T00:04:51;102266.06;;;-2.79;91.58
75298;BME280;63896;45.990;18.688;2022-12-18T00:07:54;102272.66;;;-2.89;91.79
75298;BME280;63896;45.990;18.688;2022-12-18T00:11:04;102279.09;;;-2.96;92.07
75298;BME280;63896;45.990;18.688;2022-12-18T00:14:10;102274.50;;;-2.91;92.49
75298;BME280;63896;45.990;18.688;2022-12-18T00:17:14;102278.88;;;-2.76;92.22
75298;BME280;63896;45.990;18.688;2022-12-18T00:20:17;102278.47;;;-2.68;92.08
75298;BME280;63896;45.990;18.688;2022-12-18T00:23:24;102288.25;;;-2.73;91.37
75298;BME280;63896;45.990;18.688;2022-12-18T00:26:32;102295.44;;;-2.94;91.21
75298;BME280;63896;45.990;18.688;2022-12-18T00:29:40;102301.03;;;-3.02;91.27
75298;BME280;63896;45.990;18.688;2022-12-18T00:32:42;102291.88;;;-3.09;91.77
75298;BME280;63896;45.990;18.688;2022-12-18T00:35:45;102302.16;;;-2.90;91.70
75298;BME280;63896;45.990;18.688;2022-12-18T00:38:48;102314.09;;;-3.03;91.66
75298;BME280;63896;45.990;18.688;2022-12-18T00:41:52;102320.16;;;-3.20;91.88
75298;BME280;63896;45.990;18.688;2022-12-18T00:45:14;102335.31;;;-3.12;92.22
75298;BME280;63896;45.990;18.688;2022-12-18T00:48:17;102332.50;;;-3.08;91.44
75298;BME280;63896;45.990;18.688;2022-12-18T00:51:20;102330.06;;;-3.11;91.56
75298;BME280;63896;45.990;18.688;2022-12-18T00:54:23;102330.47;;;-3.18;91.20
75298;BME280;63896;45.990;18.688;2022-12-18T00:57:26;102324.25;;;-3.16;91.31
75298;BME280;63896;45.990;18.688;2022-12-18T01:00:29;102339.44;;;-3.08;91.03
75298;BME280;63896;45.990;18.688;2022-12-18T01:03:32;102343.88;;;-3.10;91.07
75298;BME280;63896;45.990;18.688;2022-12-18T01:06:35;102342.97;;;-3.09;90.58
75298;BME280;63896;45.990;18.688;2022-12-18T01:09:38;102357.16;;;-3.16;91.23
75298;BME280;63896;45.990;18.688;2022-12-18T01:12:41;102359.63;;;-3.30;91.54
75298;BME280;63896;45.990;18.688;2022-12-18T01:15:51;102356.41;;;-3.36;91.21
75298;BME280;63896;45.990;18.688;2022-12-18T01:18:54;102364.06;;;-3.32;91.02
75298;BME280;63896;45.990;18.688;2022-12-18T01:21:58;102371.28;;;-3.39;91.70
75298;BME280;63896;45.990;18.688;2022-12-18T01:25:02;102374.56;;;-3.53;91.70
75298;BME280;63896;45.990;18.688;2022-12-18T01:28:06;102367.41;;;-3.48;91.91
75298;BME280;63896;45.990;18.688;2022-12-18T01:31:24;102372.13;;;-3.39;92.06
75298;BME280;63896;45.990;18.688;2022-12-18T01:34:27;102373.97;;;-3.41;91.19
75298;BME280;63896;45.990;18.688;2022-12-18T01:37:30;102368.31;;;-3.49;91.31
75298;BME280;63896;45.990;18.688;2022-12-18T01:40:33;102370.34;;;-3.55;91.83
75298;BME280;63896;45.990;18.688;2022-12-18T01:43:47;102370.34;;;-3.55;92.05
75298;BME280;63896;45.990;18.688;2022-12-18T01:46:51;102361.84;;;-3.40;92.66
75298;BME280;63896;45.990;18.688;2022-12-18T01:49:54;102362.91;;;-3.44;92.14
75298;BME280;63896;45.990;18.688;2022-12-18T01:53:21;102370.75;;;-3.11;91.61
75298;BME280;63896;45.990;18.688;2022-12-18T01:56:23;102363.63;;;-2.91;90.34
75298;BME280;63896;45.990;18.688;2022-12-18T01:59:27;102364.63;;;-2.93;89.97
75298;BME280;63896;45.990;18.688;2022-12-18T02:02:31;102371.50;;;-2.92;89.76
75298;BME280;63896;45.990;18.688;2022-12-18T02:05:56;102386.53;;;-2.81;89.45
75298;BME280;63896;45.990;18.688;2022-12-18T02:09:19;102389.84;;;-2.95;88.74
75298;BME280;63896;45.990;18.688;2022-12-18T02:16:04;102388.31;;;-2.99;88.52
75298;BME280;63896;45.990;18.688;2022-12-18T02:23:01;102394.13;;;-3.28;89.49
75298;BME280;63896;45.990;18.688;2022-12-18T02:26:30;102403.13;;;-3.18;89.66
75298;BME280;63896;45.990;18.688;2022-12-18T02:29:41;102417.25;;;-3.24;90.18
75298;BME280;63896;45.990;18.688;2022-12-18T02:32:52;102405.13;;;-3.41;90.12
75298;BME280;63896;45.990;18.688;2022-12-18T02:35:57;102393.91;;;-3.41;90.50
75298;BME280;63896;45.990;18.688;2022-12-18T02:39:02;102408.03;;;-3.29;89.95
75298;BME280;63896;45.990;18.688;2022-12-18T02:42:07;102408.84;;;-3.46;90.06
75298;BME280;63896;45.990;18.688;2022-12-18T02:45:12;102401.84;;;-3.44;89.99
75298;BME280;63896;45.990;18.688;2022-12-18T02:48:17;102403.59;;;-3.45;90.35
75298;BME280;63896;45.990;18.688;2022-12-18T02:51:29;102415.50;;;-3.41;90.29
75298;BME280;63896;45.990;18.688;2022-12-18T02:54:45;102409.16;;;-3.52;90.88
75298;BME280;63896;45.990;18.688;2022-12-18T02:57:54;102417.25;;;-3.41;90.11
75298;BME280;63896;45.990;18.688;2022-12-18T03:04:26;102426.28;;;-3.67;91.19
75298;BME280;63896;45.990;18.688;2022-12-18T03:07:57;102423.75;;;-3.68;90.99
75298;BME280;63896;45.990;18.688;2022-12-18T03:11:08;102425.13;;;-3.78;90.99
75298;BME280;63896;45.990;18.688;2022-12-18T03:14:15;102416.53;;;-3.80;91.28
75298;BME280;63896;45.990;18.688;2022-12-18T03:17:23;102420.41;;;-3.89;90.96
75298;BME280;63896;45.990;18.688;2022-12-18T03:20:30;102425.69;;;-3.91;91.55
75298;BME280;63896;45.990;18.688;2022-12-18T03:23:40;102428.97;;;-3.87;91.56
75298;BME280;63896;45.990;18.688;2022-12-18T03:26:47;102436.59;;;-3.84;91.31
75298;BME280;63896;45.990;18.688;2022-12-18T03:30:00;102445.28;;;-3.85;91.54
75298;BME280;63896;45.990;18.688;2022-12-18T03:33:16;102441.44;;;-3.95;92.22
75298;BME280;63896;45.990;18.688;2022-12-18T03:36:24;102452.78;;;-3.98;91.87
75298;BME280;63896;45.990;18.688;2022-12-18T03:39:27;102459.50;;;-3.94;91.78
75298;BME280;63896;45.990;18.688;2022-12-18T03:42:58;102457.91;;;-3.96;92.21
75298;BME280;63896;45.990;18.688;2022-12-18T03:46:14;102472.94;;;-4.04;92.13
75298;BME280;63896;45.990;18.688;2022-12-18T03:49:33;102476.03;;;-3.96;92.10
75298;BME280;63896;45.990;18.688;2022-12-18T03:52:43;102480.03;;;-4.08;91.97
75298;BME280;63896;45.990;18.688;2022-12-18T03:55:51;102478.22;;;-4.06;91.88
75298;BME280;63896;45.990;18.688;2022-12-18T03:58:55;102470.56;;;-4.09;92.01
75298;BME280;63896;45.990;18.688;2022-12-18T04:02:01;102495.53;;;-4.06;92.05
75298;BME280;63896;45.990;18.688;2022-12-18T04:05:07;102503.81;;;-3.98;91.75
75298;BME280;63896;45.990;18.688;2022-12-18T04:08:14;102494.19;;;-3.96;91.11
75298;BME280;63896;45.990;18.688;2022-12-18T04:11:24;102497.63;;;-3.96;90.80
75298;BME280;63896;45.990;18.688;2022-12-18T04:14:28;102499.50;;;-3.99;90.56
75298;BME280;63896;45.990;18.688;2022-12-18T04:17:32;102506.75;;;-4.06;90.84
75298;BME280;63896;45.990;18.688;2022-12-18T04:20:35;102507.63;;;-4.07;91.00
75298;BME280;63896;45.990;18.688;2022-12-18T04:23:39;102508.00;;;-3.96;91.04
75298;BME280;63896;45.990;18.688;2022-12-18T04:26:42;102503.66;;;-3.95;91.41
75298;BME280;63896;45.990;18.688;2022-12-18T04:29:50;102518.16;;;-4.10;91.45
75298;BME280;63896;45.990;18.688;2022-12-18T04:32:53;102512.13;;;-4.10;91.64
75298;BME280;63896;45.990;18.688;2022-12-18T04:35:57;102512.13;;;-4.10;92.25
75298;BME280;63896;45.990;18.688;2022-12-18T04:39:01;102528.00;;;-4.18;92.32
75298;BME280;63896;45.990;18.688;2022-12-18T04:42:04;102530.97;;;-4.27;92.42
75298;BME280;63896;45.990;18.688;2022-12-18T04:45:07;102536.03;;;-4.24;92.51
75298;BME280;63896;45.990;18.688;2022-12-18T04:48:11;102534.28;;;-4.23;92.54
75298;BME280;63896;45.990;18.688;2022-12-18T04:51:14;102546.28;;;-4.21;92.43
75298;BME280;63896;45.990;18.688;2022-12-18T04:54:17;102561.88;;;-4.22;92.26
75298;BME280;63896;45.990;18.688;2022-12-18T04:57:20;102564.72;;;-4.28;92.35
75298;BME280;63896;45.990;18.688;2022-12-18T05:00:23;102562.25;;;-4.11;92.40
75298;BME280;63896;45.990;18.688;2022-12-18T05:03:26;102561.41;;;-4.12;92.19
75298;BME280;63896;45.990;18.688;2022-12-18T05:06:29;102558.47;;;-4.04;91.95
75298;BME280;63896;45.990;18.688;2022-12-18T05:09:32;102564.31;;;-3.99;91.10
75298;BME280;63896;45.990;18.688;2022-12-18T05:12:35;102575.06;;;-4.08;91.02
75298;BME280;63896;45.990;18.688;2022-12-18T05:15:58;102589.03;;;-4.11;91.46
75298;BME280;63896;45.990;18.688;2022-12-18T05:19:02;102587.19;;;-4.09;91.33
75298;BME280;63896;45.990;18.688;2022-12-18T05:22:08;102584.34;;;-4.23;91.03
75298;BME280;63896;45.990;18.688;2022-12-18T05:25:11;102595.09;;;-4.12;91.71
75298;BME280;63896;45.990;18.688;2022-12-18T05:28:14;102597.97;;;-4.18;91.71
75298;BME280;63896;45.990;18.688;2022-12-18T05:31:16;102608.34;;;-4.18;91.38
75298;BME280;63896;45.990;18.688;2022-12-18T05:34:20;102613.53;;;-4.18;91.75
75298;BME280;63896;45.990;18.688;2022-12-18T05:37:22;102613.94;;;-4.08;92.00
75298;BME280;63896;45.990;18.688;2022-12-18T05:40:26;102615.50;;;-4.04;92.04
75298;BME280;63896;45.990;18.688;2022-12-18T05:43:29;102625.41;;;-3.94;91.91
75298;BME280;63896;45.990;18.688;2022-12-18T05:46:32;102629.13;;;-3.99;91.51
75298;BME280;63896;45.990;18.688;2022-12-18T05:49:35;102632.19;;;-4.10;91.06
75298;BME280;63896;45.990;18.688;2022-12-18T05:52:38;102634.97;;;-4.14;91.37
75298;BME280;63896;45.990;18.688;2022-12-18T05:55:41;102633.78;;;-4.27;92.04
75298;BME280;63896;45.990;18.688;2022-12-18T05:58:45;102641.63;;;-4.29;92.39
75298;BME280;63896;45.990;18.688;2022-12-18T06:01:48;102641.16;;;-4.39;92.49
75298;BME280;63896;45.990;18.688;2022-12-18T06:04:53;102649.97;;;-4.43;92.92
75298;BME280;63896;45.990;18.688;2022-12-18T06:07:56;102650.03;;;-4.44;92.76
75298;BME280;63896;45.990;18.688;2022-12-18T06:10:59;102652.41;;;-4.40;92.66
75298;BME280;63896;45.990;18.688;2022-12-18T06:14:03;102653.22;;;-4.38;92.81
75298;BME280;63896;45.990;18.688;2022-12-18T06:17:06;102659.78;;;-4.29;92.85
75298;BME280;63896;45.990;18.688;2022-12-18T06:20:09;102658.78;;;-4.26;92.73
75298;BME280;63896;45.990;18.688;2022-12-18T06:23:12;102658.78;;;-4.26;92.89
75298;BME280;63896;45.990;18.688;2022-12-18T06:26:15;102669.22;;;-4.28;92.66
75298;BME280;63896;45.990;18.688;2022-12-18T06:29:17;102664.03;;;-4.28;92.67
75298;BME280;63896;45.990;18.688;2022-12-18T06:32:22;102662.03;;;-4.21;92.74
75298;BME280;63896;45.990;18.688;2022-12-18T06:35:24;102676.47;;;-4.16;92.27
75298;BME280;63896;45.990;18.688;2022-12-18T06:38:27;102676.47;;;-4.16;92.58
75298;BME280;63896;45.990;18.688;2022-12-18T06:41:30;102684.13;;;-4.13;92.41
75298;BME280;63896;45.990;18.688;2022-12-18T06:44:33;102696.75;;;-4.05;92.14
75298;BME280;63896;45.990;18.688;2022-12-18T06:47:36;102700.69;;;-3.95;92.19
75298;BME280;63896;45.990;18.688;2022-12-18T06:50:42;102705.06;;;-3.77;91.67
75298;BME280;63896;45.990;18.688;2022-12-18T06:53:45;102711.53;;;-3.47;90.96
75298;BME280;63896;45.990;18.688;2022-12-18T06:56:48;102710.13;;;-3.54;91.22
75298;BME280;63896;45.990;18.688;2022-12-18T06:59:52;102720.44;;;-3.52;91.28
75298;BME280;63896;45.990;18.688;2022-12-18T07:02:55;102718.88;;;-3.36;91.51
75298;BME280;63896;45.990;18.688;2022-12-18T07:05:57;102711.44;;;-3.25;91.42
75298;BME280;63896;45.990;18.688;2022-12-18T07:09:00;102716.84;;;-3.11;91.61
75298;BME280;63896;45.990;18.688;2022-12-18T07:12:03;102722.06;;;-2.92;91.42
75298;BME280;63896;45.990;18.688;2022-12-18T07:15:07;102723.03;;;-2.57;90.24
75298;BME280;63896;45.990;18.688;2022-12-18T07:18:10;102730.34;;;-2.29;89.07
75298;BME280;63896;45.990;18.688;2022-12-18T07:21:16;102742.44;;;-2.11;88.43
75298;BME280;63896;45.990;18.688;2022-12-18T07:24:19;102733.44;;;-2.04;87.36
75298;BME280;63896;45.990;18.688;2022-12-18T07:27:22;102742.53;;;-1.96;86.70
75298;BME280;63896;45.990;18.688;2022-12-18T07:30:25;102741.72;;;-1.79;86.14
75298;BME280;63896;45.990;18.688;2022-12-18T07:33:28;102735.75;;;-1.64;85.32
75298;BME280;63896;45.990;18.688;2022-12-18T07:36:32;102759.00;;;-1.43;84.12
75298;BME280;63896;45.990;18.688;2022-12-18T07:39:35;102757.41;;;-1.30;83.85
75298;BME280;63896;45.990;18.688;2022-12-18T07:42:38;102757.09;;;-0.91;83.11
75298;BME280;63896;45.990;18.688;2022-12-18T07:45:42;102756.78;;;0.37;78.35
75298;BME280;63896;45.990;18.688;2022-12-18T07:48:45;102759.81;;;2.10;72.37
75298;BME280;63896;45.990;18.688;2022-12-18T07:51:54;102754.63;;;3.48;68.20
75298;BME280;63896;45.990;18.688;2022-12-18T07:54:57;102762.28;;;5.01;61.36
75298;BME280;63896;45.990;18.688;2022-12-18T07:58:01;102765.91;;;6.08;59.80
75298;BME280;63896;45.990;18.688;2022-12-18T08:01:09;102760.56;;;7.12;56.11
75298;BME280;63896;45.990;18.688;2022-12-18T08:04:13;102757.50;;;7.56;54.64
75298;BME280;63896;45.990;18.688;2022-12-18T08:07:16;102764.34;;;8.17;50.27
75298;BME280;63896;45.990;18.688;2022-12-18T08:10:19;102768.66;;;8.93;46.42
75298;BME280;63896;45.990;18.688;2022-12-18T08:13:23;102778.00;;;8.97;45.89
75298;BME280;63896;45.990;18.688;2022-12-18T08:16:26;102781.75;;;8.38;46.42
75298;BME280;63896;45.990;18.688;2022-12-18T08:19:29;102788.00;;;7.80;47.81
75298;BME280;63896;45.990;18.688;2022-12-18T08:22:34;102796.22;;;9.00;45.71
75298;BME280;63896;45.990;18.688;2022-12-18T08:25:40;102789.81;;;10.02;42.79
75298;BME280;63896;45.990;18.688;2022-12-18T08:28:43;102787.63;;;11.10;39.36
75298;BME280;63896;45.990;18.688;2022-12-18T08:31:51;102796.94;;;10.80;40.73
75298;BME280;63896;45.990;18.688;2022-12-18T08:34:54;102785.28;;;10.30;40.12
75298;BME280;63896;45.990;18.688;2022-12-18T08:37:57;102793.25;;;11.91;37.01
75298;BME280;63896;45.990;18.688;2022-12-18T08:41:05;102802.47;;;11.71;36.70
75298;BME280;63896;45.990;18.688;2022-12-18T08:44:08;102799.25;;;12.01;36.51
75298;BME280;63896;45.990;18.688;2022-12-18T08:47:29;102796.44;;;12.27;36.44
75298;BME280;63896;45.990;18.688;2022-12-18T08:50:32;102809.25;;;12.56;36.08
75298;BME280;63896;45.990;18.688;2022-12-18T08:53:36;102804.25;;;12.20;36.07
75298;BME280;63896;45.990;18.688;2022-12-18T08:56:39;102809.16;;;10.99;38.62
75298;BME280;63896;45.990;18.688;2022-12-18T08:59:42;102813.84;;;10.79;39.57
75298;BME280;63896;45.990;18.688;2022-12-18T09:02:45;102798.88;;;11.72;37.89
75298;BME280;63896;45.990;18.688;2022-12-18T09:05:48;102805.56;;;12.24;36.12
75298;BME280;63896;45.990;18.688;2022-12-18T09:08:51;102795.59;;;12.02;36.21
75298;BME280;63896;45.990;18.688;2022-12-18T09:11:54;102805.78;;;12.39;35.15
75298;BME280;63896;45.990;18.688;2022-12-18T09:14:57;102815.00;;;11.78;36.17
75298;BME280;63896;45.990;18.688;2022-12-18T09:18:00;102816.88;;;11.52;38.07
75298;BME280;63896;45.990;18.688;2022-12-18T09:21:18;102818.63;;;11.35;37.15
75298;BME280;63896;45.990;18.688;2022-12-18T09:24:24;102804.75;;;12.56;35.19
75298;BME280;63896;45.990;18.688;2022-12-18T09:27:28;102809.22;;;13.43;33.16
75298;BME280;63896;45.990;18.688;2022-12-18T09:30:32;102807.06;;;13.39;33.77
75298;BME280;63896;45.990;18.688;2022-12-18T09:33:37;102805.72;;;12.63;35.21
75298;BME280;63896;45.990;18.688;2022-12-18T09:36:40;102801.94;;;12.33;34.92
75298;BME280;63896;45.990;18.688;2022-12-18T09:39:45;102798.56;;;11.91;36.10
75298;BME280;63896;45.990;18.688;2022-12-18T09:42:57;102779.94;;;12.64;35.04
75298;BME280;63896;45.990;18.688;2022-12-18T09:46:07;102787.53;;;11.70;36.97
75298;BME280;63896;45.990;18.688;2022-12-18T09:49:15;102783.78;;;12.61;35.14
75298;BME280;63896;45.990;18.688;2022-12-18T09:52:41;102799.53;;;10.98;38.36
75298;BME280;63896;45.990;18.688;2022-12-18T09:55:48;102793.44;;;12.30;37.14
75298;BME280;63896;45.990;18.688;2022-12-18T09:59:01;102790.78;;;13.64;33.66
75298;BME280;63896;45.990;18.688;2022-12-18T10:02:18;102787.38;;;14.01;32.12
75298;BME280;63896;45.990;18.688;2022-12-18T10:05:39;102790.53;;;15.53;30.12
75298;BME280;63896;45.990;18.688;2022-12-18T10:08:59;102786.72;;;15.47;29.87
75298;BME280;63896;45.990;18.688;2022-12-18T10:25:10;102769.78;;;12.59;34.23
75298;BME280;63896;45.990;18.688;2022-12-18T10:28:19;102778.09;;;13.35;34.26
75298;BME280;63896;45.990;18.688;2022-12-18T10:31:24;102776.44;;;12.55;34.31
75298;BME280;63896;45.990;18.688;2022-12-18T10:34:27;102793.19;;;11.25;36.60
75298;BME280;63896;45.990;18.688;2022-12-18T10:37:30;102795.72;;;11.34;37.81
75298;BME280;63896;45.990;18.688;2022-12-18T10:40:51;102782.63;;;12.15;35.24
75298;BME280;63896;45.990;18.688;2022-12-18T10:47:17;102768.63;;;13.56;33.83
75298;BME280;63896;45.990;18.688;2022-12-18T10:50:29;102782.09;;;11.37;36.09
75298;BME280;63896;45.990;18.688;2022-12-18T11:00:30;102748.22;;;15.27;31.07
75298;BME280;63896;45.990;18.688;2022-12-18T11:07:02;102776.28;;;12.65;34.28
75298;BME280;63896;45.990;18.688;2022-12-18T11:10:15;102777.63;;;11.38;36.25
75298;BME280;63896;45.990;18.688;2022-12-18T11:13:21;102775.38;;;10.83;37.71
75298;BME280;63896;45.990;18.688;2022-12-18T11:16:25;102783.28;;;12.25;35.22
75298;BME280;63896;45.990;18.688;2022-12-18T11:19:36;102778.38;;;13.41;34.59
75298;BME280;63896;45.990;18.688;2022-12-18T11:22:39;102780.38;;;13.77;33.46
75298;BME280;63896;45.990;18.688;2022-12-18T11:25:51;102785.69;;;13.77;32.56
75298;BME280;63896;45.990;18.688;2022-12-18T11:29:10;102787.06;;;14.94;30.33
75298;BME280;63896;45.990;18.688;2022-12-18T11:38:55;102760.75;;;12.84;34.99
75298;BME280;63896;45.990;18.688;2022-12-18T11:42:12;102790.75;;;11.06;38.21
75298;BME280;63896;45.990;18.688;2022-12-18T11:45:26;102798.06;;;10.78;38.65
75298;BME280;63896;45.990;18.688;2022-12-18T11:48:44;102792.22;;;8.49;44.16
75298;BME280;63896;45.990;18.688;2022-12-18T11:55:15;102793.66;;;9.72;41.77
75298;BME280;63896;45.990;18.688;2022-12-18T12:01:38;102785.03;;;9.16;43.39
75298;BME280;63896;45.990;18.688;2022-12-18T12:04:48;102770.34;;;10.29;40.91
75298;BME280;63896;45.990;18.688;2022-12-18T12:18:18;102770.97;;;9.15;44.30
75298;BME280;63896;45.990;18.688;2022-12-18T12:21:28;102762.13;;;9.24;44.17
75298;BME280;63896;45.990;18.688;2022-12-18T12:25:04;102753.50;;;8.00;47.11
75298;BME280;63896;45.990;18.688;2022-12-18T12:38:09;102760.34;;;5.25;56.48
75298;BME280;63896;45.990;18.688;2022-12-18T12:41:17;102775.25;;;5.58;55.69
75298;BME280;63896;45.990;18.688;2022-12-18T12:44:44;102767.38;;;6.84;51.71
75298;BME280;63896;45.990;18.688;2022-12-18T12:47:58;102773.84;;;4.65;57.41
75298;BME280;63896;45.990;18.688;2022-12-18T12:51:08;102784.03;;;5.03;57.30
75298;BME280;63896;45.990;18.688;2022-12-18T12:54:23;102788.41;;;4.12;59.10
75298;BME280;63896;45.990;18.688;2022-12-18T13:05:02;102795.94;;;4.17;60.68
75298;BME280;63896;45.990;18.688;2022-12-18T13:08:09;102797.00;;;2.80;65.39
75298;BME280;63896;45.990;18.688;2022-12-18T13:11:40;102797.72;;;2.82;66.11
75298;BME280;63896;45.990;18.688;2022-12-18T13:18:57;102806.44;;;3.20;66.70
75298;BME280;63896;45.990;18.688;2022-12-18T13:22:01;102810.03;;;2.29;68.77
75298;BME280;63896;45.990;18.688;2022-12-18T13:25:34;102809.44;;;1.99;70.58
75298;BME280;63896;45.990;18.688;2022-12-18T13:31:57;102809.94;;;1.36;72.66
75298;BME280;63896;45.990;18.688;2022-12-18T13:41:36;102833.53;;;0.78;76.41
75298;BME280;63896;45.990;18.688;2022-12-18T13:44:40;102833.72;;;0.75;76.61
75298;BME280;63896;45.990;18.688;2022-12-18T13:47:43;102825.03;;;0.61;77.24
75298;BME280;63896;45.990;18.688;2022-12-18T13:51:15;102833.84;;;0.58;77.38
75298;BME280;63896;45.990;18.688;2022-12-18T13:54:36;102835.56;;;0.29;79.18
75298;BME280;63896;45.990;18.688;2022-12-18T13:57:40;102840.78;;;0.59;78.32
75298;BME280;63896;45.990;18.688;2022-12-18T14:00:44;102818.75;;;0.63;77.23
75298;BME280;63896;45.990;18.688;2022-12-18T14:03:48;102824.53;;;0.24;78.76
75298;BME280;63896;45.990;18.688;2022-12-18T14:10:12;102826.84;;;0.44;77.77
75298;BME280;63896;45.990;18.688;2022-12-18T14:13:41;102826.50;;;0.35;79.05
75298;BME280;63896;45.990;18.688;2022-12-18T14:16:45;102830.19;;;0.17;79.74
75298;BME280;63896;45.990;18.688;2022-12-18T14:19:50;102832.19;;;0.12;80.73
75298;BME280;63896;45.990;18.688;2022-12-18T14:22:54;102842.50;;;-0.01;80.98
75298;BME280;63896;45.990;18.688;2022-12-18T14:26:01;102862.53;;;-0.02;81.56
75298;BME280;63896;45.990;18.688;2022-12-18T14:29:27;102858.91;;;0.01;81.61
75298;BME280;63896;45.990;18.688;2022-12-18T14:32:31;102866.22;;;-0.37;83.11
75298;BME280;63896;45.990;18.688;2022-12-18T14:35:43;102864.78;;;-0.58;83.69
75298;BME280;63896;45.990;18.688;2022-12-18T14:38:54;102876.75;;;-0.71;84.31
75298;BME280;63896;45.990;18.688;2022-12-18T14:41:57;102880.63;;;-0.96;85.22
75298;BME280;63896;45.990;18.688;2022-12-18T14:45:38;102888.94;;;-1.05;85.04
75298;BME280;63896;45.990;18.688;2022-12-18T14:48:47;102890.28;;;-1.15;85.86
75298;BME280;63896;45.990;18.688;2022-12-18T14:51:53;102884.63;;;-1.23;85.85
75298;BME280;63896;45.990;18.688;2022-12-18T14:54:56;102886.06;;;-1.34;86.42
75298;BME280;63896;45.990;18.688;2022-12-18T14:57:59;102883.84;;;-1.42;86.81
75298;BME280;63896;45.990;18.688;2022-12-18T15:01:02;102887.63;;;-1.48;86.97
75298;BME280;63896;45.990;18.688;2022-12-18T15:07:25;102893.19;;;-1.55;87.47
75298;BME280;63896;45.990;18.688;2022-12-18T15:10:30;102894.63;;;-1.67;87.56
75298;BME280;63896;45.990;18.688;2022-12-18T15:13:34;102899.97;;;-1.70;87.79
75298;BME280;63896;45.990;18.688;2022-12-18T15:16:37;102906.09;;;-1.71;87.99
75298;BME280;63896;45.990;18.688;2022-12-18T15:19:49;102900.00;;;-1.88;88.27
75298;BME280;63896;45.990;18.688;2022-12-18T15:22:54;102911.75;;;-1.99;88.88
75298;BME280;63896;45.990;18.688;2022-12-18T15:25:59;102917.44;;;-1.90;88.84
75298;BME280;63896;45.990;18.688;2022-12-18T15:29:03;102921.94;;;-1.94;89.06
75298;BME280;63896;45.990;18.688;2022-12-18T15:32:18;102915.47;;;-1.85;89.31
75298;BME280;63896;45.990;18.688;2022-12-18T15:35:23;102921.94;;;-1.75;89.02
75298;BME280;63896;45.990;18.688;2022-12-18T15:38:27;102940.09;;;-1.74;89.54
75298;BME280;63896;45.990;18.688;2022-12-18T15:41:32;102944.78;;;-1.63;89.49
75298;BME280;63896;45.990;18.688;2022-12-18T15:44:37;102950.41;;;-1.36;88.47
75298;BME280;63896;45.990;18.688;2022-12-18T15:47:41;102958.69;;;-1.28;88.42
75298;BME280;63896;45.990;18.688;2022-12-18T15:50:47;102961.53;;;-1.33;88.15
75298;BME280;63896;45.990;18.688;2022-12-18T15:53:53;102959.03;;;-1.17;87.88
75298;BME280;63896;45.990;18.688;2022-12-18T15:56:58;102973.34;;;-1.09;87.28
75298;BME280;63896;45.990;18.688;2022-12-18T16:00:19;102983.88;;;-0.93;87.33
75298;BME280;63896;45.990;18.688;2022-12-18T16:03:23;102978.56;;;-0.91;86.45
75298;BME280;63896;45.990;18.688;2022-12-18T16:06:27;102980.38;;;-1.11;87.14
75298;BME280;63896;45.990;18.688;2022-12-18T16:09:50;102986.28;;;-1.24;87.51
75298;BME280;63896;45.990;18.688;2022-12-18T16:12:53;102993.94;;;-1.21;86.79
75298;BME280;63896;45.990;18.688;2022-12-18T16:15:57;102983.81;;;-1.27;87.11
75298;BME280;63896;45.990;18.688;2022-12-18T16:19:00;102983.94;;;-1.30;86.75
75298;BME280;63896;45.990;18.688;2022-12-18T16:22:05;102983.25;;;-1.51;87.80
75298;BME280;63896;45.990;18.688;2022-12-18T16:25:17;102983.84;;;-1.46;87.66
75298;BME280;63896;45.990;18.688;2022-12-18T16:28:24;102993.41;;;-1.47;87.72
75298;BME280;63896;45.990;18.688;2022-12-18T16:31:27;103000.03;;;-1.39;87.03
75298;BME280;63896;45.990;18.688;2022-12-18T16:34:32;102996.78;;;-1.45;87.43
75298;BME280;63896;45.990;18.688;2022-12-18T16:37:38;103007.47;;;-1.51;87.79
75298;BME280;63896;45.990;18.688;2022-12-18T16:40:41;103008.97;;;-1.64;88.27
75298;BME280;63896;45.990;18.688;2022-12-18T16:44:05;103016.66;;;-1.61;88.46
75298;BME280;63896;45.990;18.688;2022-12-18T16:47:09;103017.69;;;-1.46;87.95
75298;BME280;63896;45.990;18.688;2022-12-18T16:50:17;103014.97;;;-1.43;87.11
75298;BME280;63896;45.990;18.688;2022-12-18T16:53:20;103014.41;;;-1.68;88.17
75298;BME280;63896;45.990;18.688;2022-12-18T16:56:23;103012.94;;;-1.74;88.28
75298;BME280;63896;45.990;18.688;2022-12-18T16:59:27;102999.19;;;-1.96;89.62
75298;BME280;63896;45.990;18.688;2022-12-18T17:02:31;102996.75;;;-1.80;88.60
75298;BME280;63896;45.990;18.688;2022-12-18T17:05:35;102994.22;;;-1.82;88.83
75298;BME280;63896;45.990;18.688;2022-12-18T17:08:38;103002.38;;;-1.71;88.65
75298;BME280;63896;45.990;18.688;2022-12-18T17:11:42;103006.03;;;-1.75;88.64
75298;BME280;63896;45.990;18.688;2022-12-18T17:14:45;103010.03;;;-1.86;88.75
75298;BME280;63896;45.990;18.688;2022-12-18T17:17:49;103014.00;;;-1.78;89.21
75298;BME280;63896;45.990;18.688;2022-12-18T17:20:58;103018.53;;;-1.64;88.67
75298;BME280;63896;45.990;18.688;2022-12-18T17:24:01;103019.94;;;-1.57;88.04
75298;BME280;63896;45.990;18.688;2022-12-18T17:27:04;103028.59;;;-1.75;88.53
75298;BME280;63896;45.990;18.688;2022-12-18T17:30:09;103026.22;;;-1.80;89.40
75298;BME280;63896;45.990;18.688;2022-12-18T17:33:12;103021.72;;;-1.76;89.22
75298;BME280;63896;45.990;18.688;2022-12-18T17:36:16;103029.88;;;-1.65;88.52
75298;BME280;63896;45.990;18.688;2022-12-18T17:39:20;103019.44;;;-1.47;87.72
75298;BME280;63896;45.990;18.688;2022-12-18T17:42:23;103013.84;;;-1.56;87.60
75298;BME280;63896;45.990;18.688;2022-12-18T17:45:27;103009.59;;;-1.77;88.51